Camblesforth, United Kingdom
Current Conditions -  °F | °C
As of 5:20 PM on Friday 19 Dec 2014 (Local Time) from EGCN Reporting Station
Scattered Clouds Scattered Clouds  
Wind Chill: 36°   Ceiling: Unl
Heat Index: 45°   Visibility: 6mi
Dew Point: 37°   Wind: 22mph
Humidity: 76%   Direction: 250°WSW
Pressure: 29.97"   Gusts: 36mph
Location:  53.73°N, 1.02°W
Report Text: EGCN 191720Z 25019G31KT 240V340 9999 SCT027 07/03 Q1015
Loading
Personal Weather Stations






























Interactive Weather Map New forecast layout! Learn more

10-Day Weather Forecast

Advertisements
Track Severe Weather on mobile